sensor_id;sensor_type;location;lat;lon;timestamp;P1;durP1;ratioP1;P2;durP2;ratioP2
33690;SDS011;20026;50.058;18.428;2023-04-07T00:00:21;96.93;;;51.80;;
33690;SDS011;20026;50.058;18.428;2023-04-07T00:02:47;92.03;;;52.92;;
33690;SDS011;20026;50.058;18.428;2023-04-07T00:05:13;96.40;;;52.13;;
33690;SDS011;20026;50.058;18.428;2023-04-07T00:07:39;93.57;;;52.35;;
33690;SDS011;20026;50.058;18.428;2023-04-07T00:10:06;92.25;;;52.05;;
33690;SDS011;20026;50.058;18.428;2023-04-07T00:12:32;93.20;;;50.75;;
33690;SDS011;20026;50.058;18.428;2023-04-07T00:14:58;95.40;;;51.45;;
33690;SDS011;20026;50.058;18.428;2023-04-07T00:17:24;94.07;;;51.30;;
33690;SDS011;20026;50.058;18.428;2023-04-07T00:19:50;85.63;;;49.20;;
33690;SDS011;20026;50.058;18.428;2023-04-07T00:22:16;86.32;;;49.45;;
33690;SDS011;20026;50.058;18.428;2023-04-07T00:24:42;91.25;;;50.63;;
33690;SDS011;20026;50.058;18.428;2023-04-07T00:27:08;87.78;;;49.90;;
33690;SDS011;20026;50.058;18.428;2023-04-07T00:29:34;92.00;;;48.70;;
33690;SDS011;20026;50.058;18.428;2023-04-07T00:32:00;86.45;;;47.53;;
33690;SDS011;20026;50.058;18.428;2023-04-07T00:34:26;90.00;;;49.40;;
33690;SDS011;20026;50.058;18.428;2023-04-07T00:36:52;87.85;;;49.67;;
33690;SDS011;20026;50.058;18.428;2023-04-07T00:39:18;82.65;;;47.13;;
33690;SDS011;20026;50.058;18.428;2023-04-07T00:41:45;79.32;;;45.58;;
33690;SDS011;20026;50.058;18.428;2023-04-07T00:44:11;82.00;;;48.38;;
33690;SDS011;20026;50.058;18.428;2023-04-07T00:46:37;81.43;;;45.80;;
33690;SDS011;20026;50.058;18.428;2023-04-07T00:49:03;88.20;;;50.28;;
33690;SDS011;20026;50.058;18.428;2023-04-07T00:51:30;78.68;;;47.40;;
33690;SDS011;20026;50.058;18.428;2023-04-07T00:53:56;80.32;;;47.00;;
33690;SDS011;20026;50.058;18.428;2023-04-07T00:56:22;83.40;;;47.33;;
33690;SDS011;20026;50.058;18.428;2023-04-07T00:58:48;80.15;;;44.70;;
33690;SDS011;20026;50.058;18.428;2023-04-07T01:01:15;79.53;;;45.67;;
33690;SDS011;20026;50.058;18.428;2023-04-07T01:03:45;78.13;;;45.38;;
33690;SDS011;20026;50.058;18.428;2023-04-07T01:06:14;76.22;;;45.55;;
33690;SDS011;20026;50.058;18.428;2023-04-07T01:08:43;77.38;;;44.38;;
33690;SDS011;20026;50.058;18.428;2023-04-07T01:13:58;84.22;;;45.90;;
33690;SDS011;20026;50.058;18.428;2023-04-07T01:16:29;83.82;;;46.80;;
33690;SDS011;20026;50.058;18.428;2023-04-07T01:21:48;83.93;;;45.83;;
33690;SDS011;20026;50.058;18.428;2023-04-07T01:24:45;84.68;;;46.70;;
33690;SDS011;20026;50.058;18.428;2023-04-07T01:27:30;87.10;;;46.08;;
33690;SDS011;20026;50.058;18.428;2023-04-07T01:29:59;88.95;;;48.22;;
33690;SDS011;20026;50.058;18.428;2023-04-07T01:32:26;91.40;;;48.30;;
33690;SDS011;20026;50.058;18.428;2023-04-07T01:34:52;84.85;;;47.22;;
33690;SDS011;20026;50.058;18.428;2023-04-07T01:37:18;85.40;;;47.10;;
33690;SDS011;20026;50.058;18.428;2023-04-07T01:39:45;85.78;;;43.92;;
33690;SDS011;20026;50.058;18.428;2023-04-07T01:42:11;88.45;;;46.85;;
33690;SDS011;20026;50.058;18.428;2023-04-07T01:44:37;87.05;;;46.90;;
33690;SDS011;20026;50.058;18.428;2023-04-07T01:47:03;89.57;;;46.67;;
33690;SDS011;20026;50.058;18.428;2023-04-07T01:49:30;92.85;;;46.60;;
33690;SDS011;20026;50.058;18.428;2023-04-07T01:51:56;89.25;;;46.40;;
33690;SDS011;20026;50.058;18.428;2023-04-07T01:54:22;95.40;;;48.67;;
33690;SDS011;20026;50.058;18.428;2023-04-07T01:56:49;91.97;;;48.38;;
33690;SDS011;20026;50.058;18.428;2023-04-07T01:59:15;95.72;;;47.35;;
33690;SDS011;20026;50.058;18.428;2023-04-07T02:01:41;94.93;;;48.45;;
33690;SDS011;20026;50.058;18.428;2023-04-07T02:06:51;96.38;;;47.17;;
33690;SDS011;20026;50.058;18.428;2023-04-07T02:09:18;99.70;;;48.80;;
33690;SDS011;20026;50.058;18.428;2023-04-07T02:11:45;99.38;;;49.80;;
33690;SDS011;20026;50.058;18.428;2023-04-07T02:14:11;97.45;;;48.67;;
33690;SDS011;20026;50.058;18.428;2023-04-07T02:16:38;102.43;;;50.38;;
33690;SDS011;20026;50.058;18.428;2023-04-07T02:19:06;95.90;;;49.05;;
33690;SDS011;20026;50.058;18.428;2023-04-07T02:21:32;91.07;;;46.58;;
33690;SDS011;20026;50.058;18.428;2023-04-07T02:24:04;94.20;;;47.28;;
33690;SDS011;20026;50.058;18.428;2023-04-07T02:26:34;89.00;;;46.35;;
33690;SDS011;20026;50.058;18.428;2023-04-07T02:29:00;90.97;;;45.83;;
33690;SDS011;20026;50.058;18.428;2023-04-07T02:31:26;90.75;;;47.72;;
33690;SDS011;20026;50.058;18.428;2023-04-07T02:33:52;94.53;;;47.17;;
33690;SDS011;20026;50.058;18.428;2023-04-07T02:36:18;101.53;;;50.72;;
33690;SDS011;20026;50.058;18.428;2023-04-07T02:38:44;93.55;;;49.33;;
33690;SDS011;20026;50.058;18.428;2023-04-07T02:41:10;94.10;;;46.78;;
33690;SDS011;20026;50.058;18.428;2023-04-07T02:43:36;94.43;;;47.92;;
33690;SDS011;20026;50.058;18.428;2023-04-07T02:46:02;101.45;;;51.13;;
33690;SDS011;20026;50.058;18.428;2023-04-07T02:48:28;92.32;;;48.08;;
33690;SDS011;20026;50.058;18.428;2023-04-07T02:50:54;95.68;;;48.22;;
33690;SDS011;20026;50.058;18.428;2023-04-07T02:53:20;100.47;;;47.28;;
33690;SDS011;20026;50.058;18.428;2023-04-07T02:55:46;90.97;;;45.80;;
33690;SDS011;20026;50.058;18.428;2023-04-07T02:58:12;99.60;;;50.10;;
33690;SDS011;20026;50.058;18.428;2023-04-07T03:00:38;96.85;;;48.88;;
33690;SDS011;20026;50.058;18.428;2023-04-07T03:03:04;93.32;;;46.80;;
33690;SDS011;20026;50.058;18.428;2023-04-07T03:05:30;100.85;;;51.85;;
33690;SDS011;20026;50.058;18.428;2023-04-07T03:07:56;113.80;;;55.33;;
33690;SDS011;20026;50.058;18.428;2023-04-07T03:10:22;114.10;;;58.90;;
33690;SDS011;20026;50.058;18.428;2023-04-07T03:12:48;113.28;;;58.22;;
33690;SDS011;20026;50.058;18.428;2023-04-07T03:15:14;108.22;;;57.33;;
33690;SDS011;20026;50.058;18.428;2023-04-07T03:17:40;112.65;;;55.67;;
33690;SDS011;20026;50.058;18.428;2023-04-07T03:20:07;95.45;;;49.30;;
33690;SDS011;20026;50.058;18.428;2023-04-07T03:22:33;90.47;;;45.20;;
33690;SDS011;20026;50.058;18.428;2023-04-07T03:24:59;85.60;;;44.38;;
33690;SDS011;20026;50.058;18.428;2023-04-07T03:27:25;85.60;;;44.13;;
33690;SDS011;20026;50.058;18.428;2023-04-07T03:29:51;91.93;;;46.45;;
33690;SDS011;20026;50.058;18.428;2023-04-07T03:32:17;89.00;;;45.22;;
33690;SDS011;20026;50.058;18.428;2023-04-07T03:34:43;90.38;;;44.67;;
33690;SDS011;20026;50.058;18.428;2023-04-07T03:37:09;94.05;;;48.10;;
33690;SDS011;20026;50.058;18.428;2023-04-07T03:39:35;104.93;;;52.47;;
33690;SDS011;20026;50.058;18.428;2023-04-07T03:42:02;97.00;;;51.50;;
33690;SDS011;20026;50.058;18.428;2023-04-07T03:44:28;93.72;;;49.25;;
33690;SDS011;20026;50.058;18.428;2023-04-07T03:46:54;89.57;;;46.25;;
33690;SDS011;20026;50.058;18.428;2023-04-07T03:49:20;98.95;;;50.45;;
33690;SDS011;20026;50.058;18.428;2023-04-07T03:51:46;96.15;;;48.90;;
33690;SDS011;20026;50.058;18.428;2023-04-07T03:54:13;87.30;;;48.45;;
33690;SDS011;20026;50.058;18.428;2023-04-07T03:56:39;95.75;;;51.63;;
33690;SDS011;20026;50.058;18.428;2023-04-07T03:59:05;89.78;;;50.10;;
33690;SDS011;20026;50.058;18.428;2023-04-07T04:01:31;94.20;;;51.95;;
33690;SDS011;20026;50.058;18.428;2023-04-07T04:03:57;91.72;;;48.95;;
33690;SDS011;20026;50.058;18.428;2023-04-07T04:06:23;84.25;;;47.25;;
33690;SDS011;20026;50.058;18.428;2023-04-07T04:08:51;87.90;;;46.38;;
33690;SDS011;20026;50.058;18.428;2023-04-07T04:11:17;97.50;;;50.60;;
33690;SDS011;20026;50.058;18.428;2023-04-07T04:13:43;89.43;;;46.05;;
33690;SDS011;20026;50.058;18.428;2023-04-07T04:16:09;97.20;;;48.88;;
33690;SDS011;20026;50.058;18.428;2023-04-07T04:18:35;100.75;;;49.58;;
33690;SDS011;20026;50.058;18.428;2023-04-07T04:21:01;84.32;;;46.28;;
33690;SDS011;20026;50.058;18.428;2023-04-07T04:23:27;101.82;;;51.80;;
33690;SDS011;20026;50.058;18.428;2023-04-07T04:25:53;115.82;;;55.80;;
33690;SDS011;20026;50.058;18.428;2023-04-07T04:28:19;111.03;;;54.50;;
33690;SDS011;20026;50.058;18.428;2023-04-07T04:30:45;106.45;;;51.67;;
33690;SDS011;20026;50.058;18.428;2023-04-07T04:33:12;96.10;;;50.08;;
33690;SDS011;20026;50.058;18.428;2023-04-07T04:35:38;101.30;;;52.15;;
33690;SDS011;20026;50.058;18.428;2023-04-07T04:38:04;104.30;;;52.00;;
33690;SDS011;20026;50.058;18.428;2023-04-07T04:40:30;112.30;;;54.80;;
33690;SDS011;20026;50.058;18.428;2023-04-07T04:42:56;105.47;;;51.50;;
33690;SDS011;20026;50.058;18.428;2023-04-07T04:45:22;107.75;;;54.22;;
33690;SDS011;20026;50.058;18.428;2023-04-07T04:47:48;106.05;;;52.63;;
33690;SDS011;20026;50.058;18.428;2023-04-07T04:50:14;109.43;;;54.85;;
33690;SDS011;20026;50.058;18.428;2023-04-07T04:52:40;135.75;;;61.13;;
33690;SDS011;20026;50.058;18.428;2023-04-07T04:55:07;126.90;;;63.03;;
33690;SDS011;20026;50.058;18.428;2023-04-07T04:57:33;118.95;;;59.47;;
33690;SDS011;20026;50.058;18.428;2023-04-07T05:00:00;126.07;;;65.13;;
33690;SDS011;20026;50.058;18.428;2023-04-07T05:02:26;126.63;;;63.20;;
33690;SDS011;20026;50.058;18.428;2023-04-07T05:04:52;141.75;;;73.63;;
33690;SDS011;20026;50.058;18.428;2023-04-07T05:07:18;167.70;;;92.90;;
33690;SDS011;20026;50.058;18.428;2023-04-07T05:09:44;185.88;;;99.05;;
33690;SDS011;20026;50.058;18.428;2023-04-07T05:12:10;259.20;;;134.95;;
33690;SDS011;20026;50.058;18.428;2023-04-07T05:14:36;133.10;;;58.13;;
33690;SDS011;20026;50.058;18.428;2023-04-07T05:17:02;116.30;;;54.40;;
33690;SDS011;20026;50.058;18.428;2023-04-07T05:19:28;122.25;;;56.38;;
33690;SDS011;20026;50.058;18.428;2023-04-07T05:21:55;115.68;;;59.22;;
33690;SDS011;20026;50.058;18.428;2023-04-07T05:24:21;155.68;;;83.88;;
33690;SDS011;20026;50.058;18.428;2023-04-07T05:26:47;132.43;;;68.72;;
33690;SDS011;20026;50.058;18.428;2023-04-07T05:29:14;119.13;;;56.65;;
33690;SDS011;20026;50.058;18.428;2023-04-07T05:31:40;127.55;;;57.85;;
33690;SDS011;20026;50.058;18.428;2023-04-07T05:34:06;126.43;;;60.70;;
33690;SDS011;20026;50.058;18.428;2023-04-07T05:36:32;131.80;;;63.00;;
33690;SDS011;20026;50.058;18.428;2023-04-07T05:38:58;127.53;;;60.67;;
33690;SDS011;20026;50.058;18.428;2023-04-07T05:41:24;113.47;;;54.55;;
33690;SDS011;20026;50.058;18.428;2023-04-07T05:43:51;119.18;;;59.72;;
33690;SDS011;20026;50.058;18.428;2023-04-07T05:46:17;146.13;;;67.20;;
33690;SDS011;20026;50.058;18.428;2023-04-07T05:48:43;130.68;;;60.78;;
33690;SDS011;20026;50.058;18.428;2023-04-07T05:51:09;158.55;;;78.10;;
33690;SDS011;20026;50.058;18.428;2023-04-07T05:53:35;164.02;;;84.88;;
33690;SDS011;20026;50.058;18.428;2023-04-07T05:56:01;155.25;;;73.03;;
33690;SDS011;20026;50.058;18.428;2023-04-07T05:58:27;147.98;;;71.68;;
33690;SDS011;20026;50.058;18.428;2023-04-07T06:00:53;132.63;;;63.30;;
33690;SDS011;20026;50.058;18.428;2023-04-07T06:03:19;136.73;;;66.32;;
33690;SDS011;20026;50.058;18.428;2023-04-07T06:05:46;148.32;;;69.28;;
33690;SDS011;20026;50.058;18.428;2023-04-07T06:08:11;139.95;;;63.92;;
33690;SDS011;20026;50.058;18.428;2023-04-07T06:10:38;132.75;;;62.22;;
33690;SDS011;20026;50.058;18.428;2023-04-07T06:13:05;130.38;;;62.42;;
33690;SDS011;20026;50.058;18.428;2023-04-07T06:15:31;131.85;;;60.33;;
33690;SDS011;20026;50.058;18.428;2023-04-07T06:17:58;136.23;;;64.00;;
33690;SDS011;20026;50.058;18.428;2023-04-07T06:20:24;126.68;;;60.88;;
33690;SDS011;20026;50.058;18.428;2023-04-07T06:22:51;122.93;;;59.95;;
33690;SDS011;20026;50.058;18.428;2023-04-07T06:25:18;137.65;;;66.95;;
33690;SDS011;20026;50.058;18.428;2023-04-07T06:27:45;142.07;;;66.57;;
33690;SDS011;20026;50.058;18.428;2023-04-07T06:30:11;124.63;;;59.58;;
33690;SDS011;20026;50.058;18.428;2023-04-07T06:32:37;120.95;;;56.80;;
33690;SDS011;20026;50.058;18.428;2023-04-07T06:35:03;118.70;;;55.80;;
33690;SDS011;20026;50.058;18.428;2023-04-07T06:37:29;117.80;;;56.00;;
33690;SDS011;20026;50.058;18.428;2023-04-07T06:39:55;123.10;;;57.28;;
33690;SDS011;20026;50.058;18.428;2023-04-07T06:42:21;140.52;;;66.38;;
33690;SDS011;20026;50.058;18.428;2023-04-07T06:44:47;124.80;;;56.00;;
33690;SDS011;20026;50.058;18.428;2023-04-07T06:47:13;147.20;;;67.50;;
33690;SDS011;20026;50.058;18.428;2023-04-07T06:49:39;160.25;;;70.10;;
33690;SDS011;20026;50.058;18.428;2023-04-07T06:52:05;147.63;;;68.22;;
33690;SDS011;20026;50.058;18.428;2023-04-07T06:54:31;126.82;;;57.85;;
33690;SDS011;20026;50.058;18.428;2023-04-07T06:56:57;137.55;;;61.83;;
33690;SDS011;20026;50.058;18.428;2023-04-07T06:59:23;147.90;;;69.80;;
33690;SDS011;20026;50.058;18.428;2023-04-07T07:01:50;141.25;;;67.28;;
33690;SDS011;20026;50.058;18.428;2023-04-07T07:04:16;136.80;;;63.63;;
33690;SDS011;20026;50.058;18.428;2023-04-07T07:06:42;97.10;;;48.30;;
33690;SDS011;20026;50.058;18.428;2023-04-07T07:09:08;90.38;;;46.20;;
33690;SDS011;20026;50.058;18.428;2023-04-07T07:11:34;78.82;;;39.70;;
33690;SDS011;20026;50.058;18.428;2023-04-07T07:14:00;71.72;;;37.88;;
33690;SDS011;20026;50.058;18.428;2023-04-07T07:16:26;69.85;;;35.40;;
33690;SDS011;20026;50.058;18.428;2023-04-07T07:18:52;63.97;;;33.35;;
33690;SDS011;20026;50.058;18.428;2023-04-07T07:21:19;57.25;;;32.25;;
33690;SDS011;20026;50.058;18.428;2023-04-07T07:23:45;58.85;;;34.63;;
33690;SDS011;20026;50.058;18.428;2023-04-07T07:26:11;72.68;;;38.60;;
33690;SDS011;20026;50.058;18.428;2023-04-07T07:28:37;64.72;;;35.58;;
33690;SDS011;20026;50.058;18.428;2023-04-07T07:31:09;76.18;;;40.40;;
33690;SDS011;20026;50.058;18.428;2023-04-07T07:33:37;81.43;;;42.80;;
33690;SDS011;20026;50.058;18.428;2023-04-07T07:36:04;72.03;;;36.72;;
33690;SDS011;20026;50.058;18.428;2023-04-07T07:38:30;75.00;;;35.40;;
33690;SDS011;20026;50.058;18.428;2023-04-07T07:40:56;96.57;;;45.25;;
33690;SDS011;20026;50.058;18.428;2023-04-07T07:43:22;56.80;;;29.10;;
33690;SDS011;20026;50.058;18.428;2023-04-07T07:45:48;90.40;;;42.13;;
33690;SDS011;20026;50.058;18.428;2023-04-07T07:48:14;77.70;;;38.58;;
33690;SDS011;20026;50.058;18.428;2023-04-07T07:50:40;80.97;;;42.25;;
33690;SDS011;20026;50.058;18.428;2023-04-07T07:53:08;74.38;;;39.75;;
33690;SDS011;20026;50.058;18.428;2023-04-07T07:55:34;55.08;;;32.67;;
33690;SDS011;20026;50.058;18.428;2023-04-07T07:58:00;52.53;;;29.30;;
33690;SDS011;20026;50.058;18.428;2023-04-07T08:00:26;59.67;;;31.75;;
33690;SDS011;20026;50.058;18.428;2023-04-07T08:02:52;51.22;;;28.27;;
33690;SDS011;20026;50.058;18.428;2023-04-07T08:05:18;58.55;;;32.67;;
33690;SDS011;20026;50.058;18.428;2023-04-07T08:07:44;72.30;;;39.47;;
33690;SDS011;20026;50.058;18.428;2023-04-07T08:10:13;67.43;;;40.83;;
33690;SDS011;20026;50.058;18.428;2023-04-07T08:12:40;50.47;;;29.15;;
33690;SDS011;20026;50.058;18.428;2023-04-07T08:15:06;69.05;;;38.13;;
33690;SDS011;20026;50.058;18.428;2023-04-07T08:17:34;81.65;;;42.65;;
33690;SDS011;20026;50.058;18.428;2023-04-07T08:20:01;89.57;;;45.65;;
33690;SDS011;20026;50.058;18.428;2023-04-07T08:22:27;89.53;;;47.35;;
33690;SDS011;20026;50.058;18.428;2023-04-07T08:24:53;90.18;;;48.85;;
33690;SDS011;20026;50.058;18.428;2023-04-07T08:27:20;69.50;;;37.00;;
33690;SDS011;20026;50.058;18.428;2023-04-07T08:29:50;74.47;;;42.67;;
33690;SDS011;20026;50.058;18.428;2023-04-07T08:32:22;70.05;;;39.30;;
33690;SDS011;20026;50.058;18.428;2023-04-07T08:34:48;59.63;;;34.60;;
33690;SDS011;20026;50.058;18.428;2023-04-07T08:37:14;57.10;;;29.50;;
33690;SDS011;20026;50.058;18.428;2023-04-07T08:39:41;53.22;;;30.13;;
33690;SDS011;20026;50.058;18.428;2023-04-07T08:42:07;60.70;;;33.22;;
33690;SDS011;20026;50.058;18.428;2023-04-07T08:44:33;62.38;;;33.00;;
33690;SDS011;20026;50.058;18.428;2023-04-07T08:47:01;68.55;;;35.72;;
33690;SDS011;20026;50.058;18.428;2023-04-07T08:49:29;70.30;;;35.33;;
33690;SDS011;20026;50.058;18.428;2023-04-07T08:51:56;61.35;;;36.03;;
33690;SDS011;20026;50.058;18.428;2023-04-07T08:54:24;63.70;;;33.03;;
33690;SDS011;20026;50.058;18.428;2023-04-07T08:56:50;81.07;;;40.13;;
33690;SDS011;20026;50.058;18.428;2023-04-07T08:59:16;69.25;;;32.58;;
33690;SDS011;20026;50.058;18.428;2023-04-07T09:01:42;74.07;;;39.28;;
33690;SDS011;20026;50.058;18.428;2023-04-07T09:04:08;73.40;;;36.97;;
33690;SDS011;20026;50.058;18.428;2023-04-07T09:06:35;72.45;;;36.08;;
33690;SDS011;20026;50.058;18.428;2023-04-07T09:09:01;60.83;;;33.40;;
33690;SDS011;20026;50.058;18.428;2023-04-07T09:11:28;65.85;;;34.13;;
33690;SDS011;20026;50.058;18.428;2023-04-07T09:13:55;67.82;;;34.75;;
33690;SDS011;20026;50.058;18.428;2023-04-07T09:16:21;69.80;;;38.60;;
33690;SDS011;20026;50.058;18.428;2023-04-07T09:18:51;58.38;;;32.45;;
33690;SDS011;20026;50.058;18.428;2023-04-07T09:21:17;66.15;;;34.78;;
33690;SDS011;20026;50.058;18.428;2023-04-07T09:23:44;54.17;;;30.70;;
33690;SDS011;20026;50.058;18.428;2023-04-07T09:28:47;59.67;;;33.15;;
33690;SDS011;20026;50.058;18.428;2023-04-07T09:31:14;68.78;;;38.08;;
33690;SDS011;20026;50.058;18.428;2023-04-07T09:33:40;65.82;;;35.53;;
33690;SDS011;20026;50.058;18.428;2023-04-07T09:36:06;60.72;;;34.72;;
33690;SDS011;20026;50.058;18.428;2023-04-07T09:41:09;61.92;;;34.35;;
33690;SDS011;20026;50.058;18.428;2023-04-07T09:43:36;63.92;;;36.25;;
33690;SDS011;20026;50.058;18.428;2023-04-07T09:46:09;78.20;;;43.10;;
33690;SDS011;20026;50.058;18.428;2023-04-07T09:48:35;61.70;;;33.88;;
33690;SDS011;20026;50.058;18.428;2023-04-07T09:51:09;46.03;;;28.75;;
33690;SDS011;20026;50.058;18.428;2023-04-07T09:53:48;52.10;;;29.90;;
33690;SDS011;20026;50.058;18.428;2023-04-07T09:58:42;51.42;;;28.20;;
33690;SDS011;20026;50.058;18.428;2023-04-07T10:01:08;45.80;;;26.42;;
33690;SDS011;20026;50.058;18.428;2023-04-07T10:03:35;53.88;;;30.25;;
33690;SDS011;20026;50.058;18.428;2023-04-07T10:06:01;64.75;;;34.75;;
33690;SDS011;20026;50.058;18.428;2023-04-07T10:08:29;65.35;;;35.42;;
33690;SDS011;20026;50.058;18.428;2023-04-07T10:10:56;51.88;;;30.95;;
33690;SDS011;20026;50.058;18.428;2023-04-07T10:13:23;43.58;;;26.83;;
33690;SDS011;20026;50.058;18.428;2023-04-07T10:15:50;42.38;;;26.23;;
33690;SDS011;20026;50.058;18.428;2023-04-07T10:18:17;40.72;;;24.88;;
33690;SDS011;20026;50.058;18.428;2023-04-07T10:20:44;39.42;;;24.83;;
33690;SDS011;20026;50.058;18.428;2023-04-07T10:23:20;41.88;;;28.42;;
33690;SDS011;20026;50.058;18.428;2023-04-07T10:25:48;45.17;;;29.33;;
33690;SDS011;20026;50.058;18.428;2023-04-07T10:28:16;40.97;;;27.88;;
33690;SDS011;20026;50.058;18.428;2023-04-07T10:30:43;40.88;;;25.65;;
33690;SDS011;20026;50.058;18.428;2023-04-07T10:33:09;46.30;;;28.65;;
33690;SDS011;20026;50.058;18.428;2023-04-07T10:38:20;73.93;;;36.45;;
33690;SDS011;20026;50.058;18.428;2023-04-07T10:40:46;71.15;;;37.28;;
33690;SDS011;20026;50.058;18.428;2023-04-07T10:43:12;68.40;;;36.67;;
33690;SDS011;20026;50.058;18.428;2023-04-07T10:45:58;52.05;;;30.80;;
33690;SDS011;20026;50.058;18.428;2023-04-07T10:48:25;69.82;;;37.63;;
33690;SDS011;20026;50.058;18.428;2023-04-07T10:53:31;83.43;;;41.28;;
33690;SDS011;20026;50.058;18.428;2023-04-07T10:55:58;56.65;;;32.47;;
33690;SDS011;20026;50.058;18.428;2023-04-07T10:58:27;47.47;;;28.50;;
33690;SDS011;20026;50.058;18.428;2023-04-07T11:03:29;38.30;;;24.85;;
33690;SDS011;20026;50.058;18.428;2023-04-07T11:06:03;53.40;;;30.95;;
33690;SDS011;20026;50.058;18.428;2023-04-07T11:08:32;45.75;;;30.20;;
33690;SDS011;20026;50.058;18.428;2023-04-07T11:13:25;39.85;;;26.08;;
33690;SDS011;20026;50.058;18.428;2023-04-07T11:15:51;48.88;;;29.83;;
33690;SDS011;20026;50.058;18.428;2023-04-07T11:18:18;61.45;;;35.25;;
33690;SDS011;20026;50.058;18.428;2023-04-07T11:20:50;53.70;;;31.48;;
33690;SDS011;20026;50.058;18.428;2023-04-07T11:23:17;66.13;;;38.83;;
33690;SDS011;20026;50.058;18.428;2023-04-07T11:25:43;75.20;;;40.67;;
33690;SDS011;20026;50.058;18.428;2023-04-07T11:28:10;79.60;;;40.30;;
33690;SDS011;20026;50.058;18.428;2023-04-07T11:30:37;56.67;;;33.10;;
33690;SDS011;20026;50.058;18.428;2023-04-07T11:33:03;66.45;;;37.85;;
33690;SDS011;20026;50.058;18.428;2023-04-07T11:35:29;71.85;;;38.35;;
33690;SDS011;20026;50.058;18.428;2023-04-07T11:37:59;109.25;;;50.08;;
33690;SDS011;20026;50.058;18.428;2023-04-07T11:40:30;90.72;;;45.45;;
33690;SDS011;20026;50.058;18.428;2023-04-07T11:42:58;77.68;;;38.40;;
33690;SDS011;20026;50.058;18.428;2023-04-07T11:45:25;99.45;;;49.47;;
33690;SDS011;20026;50.058;18.428;2023-04-07T11:47:51;81.72;;;42.80;;
33690;SDS011;20026;50.058;18.428;2023-04-07T11:50:36;71.53;;;40.15;;
33690;SDS011;20026;50.058;18.428;2023-04-07T11:53:02;47.80;;;30.15;;
33690;SDS011;20026;50.058;18.428;2023-04-07T11:55:28;58.03;;;35.17;;
33690;SDS011;20026;50.058;18.428;2023-04-07T11:57:54;67.45;;;40.95;;
33690;SDS011;20026;50.058;18.428;2023-04-07T12:00:21;97.40;;;56.88;;
33690;SDS011;20026;50.058;18.428;2023-04-07T12:02:47;63.63;;;36.72;;
33690;SDS011;20026;50.058;18.428;2023-04-07T12:05:13;87.38;;;47.83;;
33690;SDS011;20026;50.058;18.428;2023-04-07T12:07:40;80.22;;;45.17;;
33690;SDS011;20026;50.058;18.428;2023-04-07T12:10:17;76.93;;;41.33;;
33690;SDS011;20026;50.058;18.428;2023-04-07T12:12:44;67.97;;;37.47;;
33690;SDS011;20026;50.058;18.428;2023-04-07T12:15:10;60.80;;;32.40;;
33690;SDS011;20026;50.058;18.428;2023-04-07T12:17:36;63.70;;;34.90;;
33690;SDS011;20026;50.058;18.428;2023-04-07T12:20:03;49.90;;;30.83;;
33690;SDS011;20026;50.058;18.428;2023-04-07T12:22:29;57.55;;;34.85;;
33690;SDS011;20026;50.058;18.428;2023-04-07T12:24:55;65.75;;;41.05;;
33690;SDS011;20026;50.058;18.428;2023-04-07T12:27:21;62.22;;;37.08;;
33690;SDS011;20026;50.058;18.428;2023-04-07T12:29:46;50.33;;;31.30;;
33690;SDS011;20026;50.058;18.428;2023-04-07T12:32:12;65.50;;;39.35;;
33690;SDS011;20026;50.058;18.428;2023-04-07T12:34:38;72.50;;;41.42;;
33690;SDS011;20026;50.058;18.428;2023-04-07T12:37:04;68.07;;;42.72;;
33690;SDS011;20026;50.058;18.428;2023-04-07T12:39:31;70.53;;;42.65;;
33690;SDS011;20026;50.058;18.428;2023-04-07T12:41:57;51.10;;;31.40;;
33690;SDS011;20026;50.058;18.428;2023-04-07T12:44:23;62.67;;;37.30;;
33690;SDS011;20026;50.058;18.428;2023-04-07T12:46:49;65.72;;;39.60;;
33690;SDS011;20026;50.058;18.428;2023-04-07T12:49:16;71.55;;;40.30;;
33690;SDS011;20026;50.058;18.428;2023-04-07T12:51:42;76.32;;;39.70;;
33690;SDS011;20026;50.058;18.428;2023-04-07T12:54:08;60.03;;;35.25;;
33690;SDS011;20026;50.058;18.428;2023-04-07T12:56:34;198.25;;;63.28;;
33690;SDS011;20026;50.058;18.428;2023-04-07T12:59:01;109.28;;;53.45;;
33690;SDS011;20026;50.058;18.428;2023-04-07T13:01:27;70.10;;;41.85;;
33690;SDS011;20026;50.058;18.428;2023-04-07T13:03:53;72.03;;;48.80;;
33690;SDS011;20026;50.058;18.428;2023-04-07T13:06:19;58.60;;;39.88;;
33690;SDS011;20026;50.058;18.428;2023-04-07T13:08:45;71.38;;;45.03;;
33690;SDS011;20026;50.058;18.428;2023-04-07T13:11:10;99.15;;;47.95;;
33690;SDS011;20026;50.058;18.428;2023-04-07T13:13:37;120.18;;;69.85;;
33690;SDS011;20026;50.058;18.428;2023-04-07T13:16:03;83.00;;;46.03;;
33690;SDS011;20026;50.058;18.428;2023-04-07T13:18:29;71.30;;;40.13;;
33690;SDS011;20026;50.058;18.428;2023-04-07T13:20:55;67.57;;;38.53;;
33690;SDS011;20026;50.058;18.428;2023-04-07T13:23:21;61.40;;;36.33;;
33690;SDS011;20026;50.058;18.428;2023-04-07T13:25:47;86.57;;;44.80;;
33690;SDS011;20026;50.058;18.428;2023-04-07T13:28:13;67.13;;;37.08;;
33690;SDS011;20026;50.058;18.428;2023-04-07T13:30:42;49.63;;;29.05;;
33690;SDS011;20026;50.058;18.428;2023-04-07T13:33:08;60.53;;;33.28;;
33690;SDS011;20026;50.058;18.428;2023-04-07T13:35:34;71.97;;;41.00;;
33690;SDS011;20026;50.058;18.428;2023-04-07T13:38:01;61.08;;;34.00;;
33690;SDS011;20026;50.058;18.428;2023-04-07T13:40:27;54.97;;;33.33;;
33690;SDS011;20026;50.058;18.428;2023-04-07T13:42:53;63.65;;;35.90;;
33690;SDS011;20026;50.058;18.428;2023-04-07T13:45:21;81.40;;;43.20;;
33690;SDS011;20026;50.058;18.428;2023-04-07T13:47:47;73.80;;;40.72;;
33690;SDS011;20026;50.058;18.428;2023-04-07T13:50:13;65.78;;;37.58;;
33690;SDS011;20026;50.058;18.428;2023-04-07T13:52:39;58.72;;;35.60;;
33690;SDS011;20026;50.058;18.428;2023-04-07T13:55:06;51.63;;;30.17;;
33690;SDS011;20026;50.058;18.428;2023-04-07T13:57:32;65.93;;;37.58;;
33690;SDS011;20026;50.058;18.428;2023-04-07T13:59:58;54.90;;;34.53;;
33690;SDS011;20026;50.058;18.428;2023-04-07T14:02:24;63.42;;;36.60;;
33690;SDS011;20026;50.058;18.428;2023-04-07T14:04:52;56.40;;;34.92;;
33690;SDS011;20026;50.058;18.428;2023-04-07T14:07:18;60.47;;;35.55;;
33690;SDS011;20026;50.058;18.428;2023-04-07T14:09:44;62.78;;;37.30;;
33690;SDS011;20026;50.058;18.428;2023-04-07T14:12:12;70.88;;;38.80;;
33690;SDS011;20026;50.058;18.428;2023-04-07T14:14:38;66.07;;;39.50;;
33690;SDS011;20026;50.058;18.428;2023-04-07T14:17:04;63.35;;;36.47;;
33690;SDS011;20026;50.058;18.428;2023-04-07T14:19:30;66.13;;;38.25;;
33690;SDS011;20026;50.058;18.428;2023-04-07T14:21:57;74.22;;;39.47;;
33690;SDS011;20026;50.058;18.428;2023-04-07T14:24:24;81.15;;;40.95;;
33690;SDS011;20026;50.058;18.428;2023-04-07T14:26:49;91.10;;;46.85;;
33690;SDS011;20026;50.058;18.428;2023-04-07T14:29:18;74.35;;;39.20;;